createdAt,value
2019-05-22T00:02:00.937Z,98460.36
2019-05-22T00:04:32.579Z,98455.75
2019-05-22T00:07:03.693Z,98456.71
2019-05-22T00:09:35.858Z,98457.97
2019-05-22T00:12:08.342Z,98459.59
2019-05-22T00:14:38.421Z,98463.54
2019-05-22T00:17:10.167Z,98464.63
2019-05-22T00:19:41.274Z,98472.50
2019-05-22T00:22:12.921Z,98464.62
2019-05-22T00:24:47.312Z,98469.85
2019-05-22T00:27:37.129Z,98467.45
2019-05-22T00:30:10.264Z,98464.62
2019-05-22T00:32:40.147Z,98456.06
2019-05-22T00:35:11.684Z,98463.91
2019-05-22T00:37:42.880Z,98469.63
2019-05-22T00:40:15.627Z,98473.23
2019-05-22T00:43:02.997Z,98475.84
2019-05-22T00:45:21.393Z,98473.26
2019-05-22T00:47:51.630Z,98474.38
2019-05-22T00:50:25.334Z,98480.65
2019-05-22T00:52:59.745Z,98480.78
2019-05-22T00:55:46.555Z,98493.97
2019-05-22T00:58:37.432Z,98486.39
2019-05-22T01:01:18.142Z,98480.84
2019-05-22T01:03:49.374Z,98474.38
2019-05-22T01:06:21.569Z,98479.72
2019-05-22T01:08:52.930Z,98474.82
2019-05-22T01:11:25.852Z,98477.08
2019-05-22T01:13:55.771Z,98470.23
2019-05-22T01:16:27.349Z,98464.45
2019-05-22T01:18:57.900Z,98466.08
2019-05-22T01:21:27.580Z,98466.98
2019-05-22T01:23:59.164Z,98464.62
2019-05-22T01:26:29.638Z,98467.27
2019-05-22T01:29:01.444Z,98479.69
2019-05-22T01:31:32.655Z,98483.52
2019-05-22T01:34:15.319Z,98478.27
2019-05-22T01:36:49.332Z,98485.73
2019-05-22T01:39:27.369Z,98491.83
2019-05-22T01:42:01.062Z,98486.52
2019-05-22T01:44:30.774Z,98491.31
2019-05-22T01:47:04.652Z,98483.98
2019-05-22T01:49:37.914Z,98480.21
2019-05-22T01:52:09.516Z,98479.73
2019-05-22T01:54:39.205Z,98479.39
2019-05-22T01:57:10.854Z,98487.42
2019-05-22T01:59:42.238Z,98487.15
2019-05-22T02:02:13.928Z,98491.77
2019-05-22T02:04:43.638Z,98490.34
2019-05-22T02:07:14.987Z,98496.69
2019-05-22T02:09:46.234Z,98495.38
2019-05-22T02:12:27.155Z,98495.34
2019-05-22T02:14:58.330Z,98495.80
2019-05-22T02:17:33.776Z,98492.55
2019-05-22T02:20:06.989Z,98496.72
2019-05-22T02:22:38.835Z,98506.52
2019-05-22T02:25:08.699Z,98497.23
2019-05-22T02:27:39.919Z,98501.00
2019-05-22T02:30:10.675Z,98498.99
2019-05-22T02:32:41.258Z,98506.17
2019-05-22T02:35:11.693Z,98508.38
2019-05-22T02:37:42.921Z,98511.75
2019-05-22T02:40:32.857Z,98519.70
2019-05-22T02:43:02.504Z,98518.21
2019-05-22T02:45:33.344Z,98523.23
2019-05-22T02:48:06.430Z,98520.69
2019-05-22T02:50:37.993Z,98514.37
2019-05-22T02:53:09.981Z,98515.46
2019-05-22T02:55:40.429Z,98529.37
2019-05-22T02:58:11.315Z,98519.38
2019-05-22T03:01:01.649Z,98514.63
2019-05-22T03:03:34.019Z,98513.86
2019-05-22T03:06:06.724Z,98516.92
2019-05-22T03:09:05.060Z,98524.88
2019-05-22T03:11:39.836Z,98525.29
2019-05-22T03:14:11.453Z,98521.72
2019-05-22T03:16:56.773Z,98519.89
2019-05-22T03:19:46.426Z,98519.05
2019-05-22T03:22:27.625Z,98512.96
2019-05-22T03:25:02.004Z,98516.31
2019-05-22T03:27:50.304Z,98515.75
2019-05-22T03:30:27.841Z,98521.82
2019-05-22T03:32:59.334Z,98525.67
2019-05-22T03:35:31.965Z,98536.76
2019-05-22T03:38:02.026Z,98541.61
2019-05-22T03:40:32.119Z,98539.24
2019-05-22T03:43:15.290Z,98547.48
2019-05-22T03:45:44.976Z,98551.75
2019-05-22T03:48:15.360Z,98560.39
2019-05-22T03:50:45.105Z,98552.53
2019-05-22T03:53:18.383Z,98551.77
2019-05-22T03:55:49.332Z,98554.44
2019-05-22T03:58:20.638Z,98562.00
2019-05-22T04:00:53.227Z,98566.52
2019-05-22T04:03:24.462Z,98559.97
2019-05-22T04:05:54.125Z,98562.48
2019-05-22T04:08:26.706Z,98561.52
2019-05-22T04:11:07.379Z,98565.94
2019-05-22T04:13:36.989Z,98560.52
2019-05-22T04:16:08.406Z,98561.98
2019-05-22T04:18:39.375Z,98561.44
2019-05-22T04:21:09.230Z,98556.81
2019-05-22T04:23:40.470Z,98561.45
2019-05-22T04:26:12.178Z,98570.55
2019-05-22T04:28:53.069Z,98567.16
2019-05-22T04:31:45.425Z,98567.03
2019-05-22T04:34:15.925Z,98564.28
2019-05-22T04:36:47.079Z,98565.81
2019-05-22T04:39:22.377Z,98562.37
2019-05-22T04:41:52.927Z,98568.66
2019-05-22T04:44:22.921Z,98568.81
2019-05-22T04:46:53.565Z,98562.91
2019-05-22T04:49:24.337Z,98565.92
2019-05-22T04:51:54.090Z,98569.16
2019-05-22T04:54:24.063Z,98570.36
2019-05-22T04:56:54.424Z,98569.77
2019-05-22T04:59:24.410Z,98567.76
2019-05-22T05:01:54.085Z,98565.44
2019-05-22T05:04:24.272Z,98564.08
2019-05-22T05:06:54.538Z,98567.25
2019-05-22T05:09:24.920Z,98564.59
2019-05-22T05:11:54.730Z,98561.09
2019-05-22T05:14:24.514Z,98561.26
2019-05-22T05:16:54.390Z,98562.33
2019-05-22T05:19:24.949Z,98562.13
2019-05-22T05:21:54.804Z,98559.15
2019-05-22T05:24:24.620Z,98554.27
2019-05-22T05:26:55.089Z,98561.67
2019-05-22T05:29:30.418Z,98559.88
2019-05-22T05:32:00.429Z,98554.55
2019-05-22T05:34:40.832Z,98552.92
2019-05-22T05:37:12.353Z,98551.92
2019-05-22T05:39:52.131Z,98549.17
2019-05-22T05:42:21.746Z,98551.72
2019-05-22T05:44:51.355Z,98558.25
2019-05-22T05:47:21.251Z,98557.19
2019-05-22T05:49:52.042Z,98556.70
2019-05-22T05:52:24.192Z,98565.81
2019-05-22T05:54:54.788Z,98557.41
2019-05-22T05:57:41.317Z,98552.02
2019-05-22T06:00:32.816Z,98560.57
2019-05-22T06:03:37.038Z,98557.49
2019-05-22T06:06:27.360Z,98563.55
2019-05-22T06:09:02.297Z,98561.95
2019-05-22T06:11:46.736Z,98563.53
2019-05-22T06:14:24.074Z,98567.06
2019-05-22T06:17:26.800Z,98567.06
2019-05-22T06:20:01.139Z,98573.12
2019-05-22T06:22:31.163Z,98576.61
2019-05-22T06:25:03.689Z,98570.67
2019-05-22T06:27:41.641Z,98578.36
2019-05-22T06:30:17.733Z,98577.76
2019-05-22T06:33:12.502Z,98576.88
2019-05-22T06:35:44.596Z,98576.20
2019-05-22T06:38:46.971Z,98572.45
2019-05-22T06:41:18.960Z,98575.89
2019-05-22T06:44:05.669Z,98570.45
2019-05-22T06:46:47.561Z,98562.00
2019-05-22T06:49:36.282Z,98561.64
2019-05-22T06:52:08.460Z,98569.08
2019-05-22T06:54:39.483Z,98565.23
2019-05-22T06:57:11.637Z,98564.75
2019-05-22T06:59:42.129Z,98567.72
2019-05-22T07:02:14.084Z,98565.85
2019-05-22T07:04:44.353Z,98563.95
2019-05-22T07:07:14.276Z,98566.42
2019-05-22T07:09:45.732Z,98567.36
2019-05-22T07:12:18.410Z,98568.00
2019-05-22T07:15:23.193Z,98564.88
2019-05-22T07:17:53.443Z,98573.07
2019-05-22T07:20:25.094Z,98581.12
2019-05-22T07:22:55.210Z,98574.66
2019-05-22T07:25:27.208Z,98571.43
2019-05-22T07:27:58.646Z,98571.19
2019-05-22T07:30:28.576Z,98575.37
2019-05-22T07:32:58.464Z,98581.69
2019-05-22T07:35:45.668Z,98571.39
2019-05-22T07:38:01.402Z,98578.62
2019-05-22T07:40:32.343Z,98577.80
2019-05-22T07:43:02.029Z,98580.17
2019-05-22T07:45:34.325Z,98576.58
2019-05-22T07:48:05.767Z,98574.68
2019-05-22T07:50:37.241Z,98574.20
2019-05-22T07:53:08.008Z,98577.78
2019-05-22T07:55:38.045Z,98587.58
2019-05-22T07:58:15.421Z,98578.89
2019-05-22T08:00:50.441Z,98577.02
2019-05-22T08:03:22.433Z,98581.12
2019-05-22T08:05:58.034Z,98576.23
2019-05-22T08:08:31.904Z,98577.86
2019-05-22T08:11:01.775Z,98584.89
2019-05-22T08:13:32.494Z,98575.30
2019-05-22T08:16:02.712Z,98582.41
2019-05-22T08:18:34.179Z,98585.45
2019-05-22T08:21:04.415Z,98570.47
2019-05-22T08:23:34.624Z,98577.61
2019-05-22T08:26:05.577Z,98580.38
2019-05-22T08:28:36.318Z,98584.63
2019-05-22T08:31:07.694Z,98584.72
2019-05-22T08:33:39.446Z,98579.06
2019-05-22T08:36:09.872Z,98586.77
2019-05-22T08:38:41.608Z,98588.45
2019-05-22T08:41:13.801Z,98593.49
2019-05-22T08:44:11.610Z,98593.84
2019-05-22T08:46:17.366Z,98599.80
2019-05-22T08:48:50.169Z,98608.77
2019-05-22T08:51:20.059Z,98601.98
2019-05-22T08:53:49.864Z,98600.82
2019-05-22T08:56:19.798Z,98596.08
2019-05-22T08:58:50.141Z,98600.98
2019-05-22T09:01:21.095Z,98597.06
2019-05-22T09:03:51.272Z,98606.13
2019-05-22T09:06:21.278Z,98599.59
2019-05-22T09:08:51.113Z,98601.23
2019-05-22T09:11:20.816Z,98604.08
2019-05-22T09:13:50.486Z,98598.86
2019-05-22T09:16:20.224Z,98604.89
2019-05-22T09:18:50.189Z,98600.60
2019-05-22T09:21:19.828Z,98609.20
2019-05-22T09:23:50.209Z,98616.63
2019-05-22T09:26:19.977Z,98609.09
2019-05-22T09:28:49.913Z,98617.87
2019-05-22T09:31:19.639Z,98622.95
2019-05-22T09:33:49.433Z,98624.95
2019-05-22T09:36:19.518Z,98630.22
2019-05-22T09:38:52.400Z,98629.61
2019-05-22T09:41:22.604Z,98638.91
2019-05-22T09:43:52.659Z,98644.48
2019-05-22T09:46:22.903Z,98642.98
2019-05-22T09:48:53.153Z,98644.41
2019-05-22T09:51:22.768Z,98651.75
2019-05-22T09:53:53.853Z,98645.04
2019-05-22T09:56:25.211Z,98652.14
2019-05-22T09:58:55.198Z,98652.52
2019-05-22T10:01:24.917Z,98657.91
2019-05-22T10:03:55.052Z,98652.33
2019-05-22T10:06:24.677Z,98643.25
2019-05-22T10:08:54.356Z,98648.17
2019-05-22T10:11:24.348Z,98650.64
2019-05-22T10:13:53.977Z,98653.68
2019-05-22T10:16:23.879Z,98663.67
2019-05-22T10:18:53.859Z,98660.67
2019-05-22T10:21:24.726Z,98657.33
2019-05-22T10:23:54.503Z,98661.64
2019-05-22T10:26:24.313Z,98659.53
2019-05-22T10:28:56.160Z,98656.18
2019-05-22T10:31:26.131Z,98666.37
2019-05-22T10:33:56.083Z,98666.20
2019-05-22T10:36:25.725Z,98678.55
2019-05-22T10:38:56.281Z,98672.23
2019-05-22T10:41:27.858Z,98679.29
2019-05-22T10:43:57.757Z,98684.02
2019-05-22T10:46:28.001Z,98687.20
2019-05-22T10:48:58.146Z,98685.34
2019-05-22T10:51:29.322Z,98681.84
2019-05-22T10:53:59.005Z,98685.89
2019-05-22T10:56:28.916Z,98689.54
2019-05-22T10:59:01.509Z,98689.47
2019-05-22T11:01:30.796Z,98693.50
2019-05-22T11:04:00.831Z,98698.14
2019-05-22T11:06:31.384Z,98688.52
2019-05-22T11:09:01.369Z,98696.59
2019-05-22T11:11:31.035Z,98691.42
2019-05-22T11:14:02.386Z,98688.36
2019-05-22T11:16:33.020Z,98690.29
2019-05-22T11:19:04.472Z,98694.31
2019-05-22T11:21:35.181Z,98692.34
2019-05-22T11:24:05.206Z,98697.19
2019-05-22T11:26:34.935Z,98700.06
2019-05-22T11:29:06.124Z,98705.27
2019-05-22T11:31:36.514Z,98705.53
2019-05-22T11:34:08.460Z,98704.03
2019-05-22T11:36:38.505Z,98700.95
2019-05-22T11:39:13.283Z,98698.99
2019-05-22T11:41:43.460Z,98698.60
2019-05-22T11:44:13.288Z,98700.14
2019-05-22T11:46:43.545Z,98699.94
2019-05-22T11:49:13.142Z,98699.19
2019-05-22T11:51:43.290Z,98707.08
2019-05-22T11:54:13.268Z,98713.08
2019-05-22T11:56:43.016Z,98723.01
2019-05-22T11:59:15.432Z,98724.85
2019-05-22T12:01:45.602Z,98729.47
2019-05-22T12:04:16.324Z,98731.54
2019-05-22T12:06:46.891Z,98733.14
2019-05-22T12:09:16.862Z,98731.84
2019-05-22T12:11:46.864Z,98735.41
2019-05-22T12:14:19.118Z,98730.03
2019-05-22T12:16:52.934Z,98734.16
2019-05-22T12:19:22.567Z,98733.06
2019-05-22T12:21:52.341Z,98736.95
2019-05-22T12:24:28.587Z,98734.71
2019-05-22T12:26:53.642Z,98736.58
2019-05-22T12:29:23.929Z,98736.28
2019-05-22T12:31:53.539Z,98737.41
2019-05-22T12:34:23.475Z,98744.04
2019-05-22T12:36:54.049Z,98740.07
2019-05-22T12:39:24.785Z,98742.80
2019-05-22T12:41:54.768Z,98741.84
2019-05-22T12:44:25.616Z,98739.99
2019-05-22T12:46:55.360Z,98742.61
2019-05-22T12:49:27.629Z,98736.64
2019-05-22T12:51:58.677Z,98747.25
2019-05-22T12:54:45.109Z,98743.86
2019-05-22T12:57:00.136Z,98751.34
2019-05-22T12:59:30.219Z,98743.98
2019-05-22T13:02:00.322Z,98759.60
2019-05-22T13:04:32.207Z,98760.11
2019-05-22T13:07:02.089Z,98762.12
2019-05-22T13:09:36.725Z,98751.35
2019-05-22T13:12:08.927Z,98751.45
2019-05-22T13:14:38.947Z,98755.19
2019-05-22T13:17:10.712Z,98757.95
2019-05-22T13:19:40.912Z,98752.72
2019-05-22T13:22:16.531Z,98746.08
2019-05-22T13:24:46.553Z,98749.55
2019-05-22T13:27:18.381Z,98753.19
2019-05-22T13:29:50.247Z,98751.59
2019-05-22T13:32:20.980Z,98755.14
2019-05-22T13:34:51.260Z,98751.18
2019-05-22T13:37:20.995Z,98761.48
2019-05-22T13:39:51.284Z,98760.44
2019-05-22T13:42:21.347Z,98760.13
2019-05-22T13:44:51.032Z,98760.52
2019-05-22T13:47:20.917Z,98762.66
2019-05-22T13:49:50.578Z,98773.12
2019-05-22T13:52:20.464Z,98772.91
2019-05-22T13:54:51.246Z,98769.88
2019-05-22T13:57:21.742Z,98765.06
2019-05-22T13:59:51.893Z,98766.33
2019-05-22T14:02:21.581Z,98773.90
2019-05-22T14:04:51.257Z,98769.25
2019-05-22T14:07:21.191Z,98769.38
2019-05-22T14:09:51.144Z,98776.02
2019-05-22T14:12:21.261Z,98778.05
2019-05-22T14:14:51.556Z,98771.77
2019-05-22T14:17:21.531Z,98776.52
2019-05-22T14:19:51.157Z,98769.85
2019-05-22T14:22:20.915Z,98773.51
2019-05-22T14:24:50.527Z,98770.66
2019-05-22T14:27:20.763Z,98775.45
2019-05-22T14:29:50.559Z,98762.70
2019-05-22T14:32:20.528Z,98767.31
2019-05-22T14:34:50.658Z,98763.23
2019-05-22T14:37:20.888Z,98764.16
2019-05-22T14:39:51.405Z,98767.98
2019-05-22T14:42:21.300Z,98768.06
2019-05-22T14:44:52.122Z,98759.96
2019-05-22T14:47:24.222Z,98764.49
2019-05-22T14:49:53.866Z,98767.47
2019-05-22T14:52:24.566Z,98761.16
2019-05-22T14:54:55.047Z,98768.79
2019-05-22T14:57:25.521Z,98761.88
2019-05-22T14:59:55.231Z,98770.64
2019-05-22T15:02:25.237Z,98766.99
2019-05-22T15:04:55.670Z,98768.70
2019-05-22T15:07:25.693Z,98769.89
2019-05-22T15:09:55.374Z,98781.99
2019-05-22T15:12:25.296Z,98782.72
2019-05-22T15:14:55.656Z,98783.39
2019-05-22T15:17:32.264Z,98783.73
2019-05-22T15:19:57.257Z,98780.31
2019-05-22T15:22:27.333Z,98787.67
2019-05-22T15:24:58.666Z,98782.01
2019-05-22T15:27:28.720Z,98779.58
2019-05-22T15:29:59.033Z,98770.27
2019-05-22T15:32:29.202Z,98764.30
2019-05-22T15:34:59.055Z,98772.44
2019-05-22T15:37:29.986Z,98774.38
2019-05-22T15:40:00.359Z,98774.39
2019-05-22T15:42:43.298Z,98774.90
2019-05-22T15:45:24.440Z,98773.34
2019-05-22T15:47:57.549Z,98772.23
2019-05-22T15:50:34.271Z,98766.02
2019-05-22T15:53:15.047Z,98764.67
2019-05-22T15:55:44.360Z,98769.75
2019-05-22T15:58:17.546Z,98769.89
2019-05-22T16:00:51.027Z,98766.77
2019-05-22T16:03:25.238Z,98761.19
2019-05-22T16:05:56.023Z,98760.98
2019-05-22T16:08:26.232Z,98762.92
2019-05-22T16:11:00.116Z,98766.02
2019-05-22T16:13:33.067Z,98770.05
2019-05-22T16:16:06.544Z,98765.64
2019-05-22T16:18:38.702Z,98767.93
2019-05-22T16:21:10.960Z,98767.27
2019-05-22T16:23:43.269Z,98767.00
2019-05-22T16:26:14.033Z,98770.45
2019-05-22T16:28:46.078Z,98770.28
2019-05-22T16:31:18.275Z,98779.06
2019-05-22T16:33:50.492Z,98784.34
2019-05-22T16:36:21.316Z,98783.44
2019-05-22T16:38:51.882Z,98777.72
2019-05-22T16:41:23.340Z,98782.85
2019-05-22T16:43:53.691Z,98789.90
2019-05-22T16:46:24.321Z,98792.38
2019-05-22T16:48:54.887Z,98796.07
2019-05-22T16:51:25.085Z,98800.88
2019-05-22T16:53:57.892Z,98808.73
2019-05-22T16:56:28.252Z,98805.84
2019-05-22T16:58:58.985Z,98810.29
2019-05-22T17:01:29.701Z,98806.14
2019-05-22T17:04:03.003Z,98807.55
2019-05-22T17:06:34.848Z,98808.43
2019-05-22T17:09:08.594Z,98810.29
2019-05-22T17:11:39.559Z,98811.31
2019-05-22T17:14:12.484Z,98816.65
2019-05-22T17:16:43.731Z,98823.96
2019-05-22T17:19:26.461Z,98815.20
2019-05-22T17:21:47.456Z,98830.17
2019-05-22T17:24:18.065Z,98828.70
2019-05-22T17:26:48.042Z,98842.25
2019-05-22T17:29:17.860Z,98840.91
2019-05-22T17:31:48.158Z,98848.88
2019-05-22T17:34:34.765Z,98853.02
2019-05-22T17:37:10.787Z,98859.38
2019-05-22T17:39:43.777Z,98859.67
2019-05-22T17:42:16.387Z,98860.27
2019-05-22T18:15:38.726Z,98863.16
2019-05-22T18:18:11.064Z,98890.34
2019-05-22T18:20:44.014Z,98897.81
2019-05-22T18:23:14.929Z,98904.87
2019-05-22T18:25:46.477Z,98914.88
2019-05-22T18:28:16.410Z,98914.20
2019-05-22T18:30:47.826Z,98918.39
2019-05-22T18:33:17.768Z,98918.16
2019-05-22T18:35:48.149Z,98917.99
2019-05-22T18:38:18.482Z,98922.50
2019-05-22T18:41:07.843Z,98924.93
2019-05-22T18:43:38.042Z,98928.67
2019-05-22T18:46:08.975Z,98931.71
2019-05-22T18:48:39.740Z,98935.92
2019-05-22T18:51:10.376Z,98939.88
2019-05-22T18:53:40.420Z,98941.45
2019-05-22T18:56:11.626Z,98940.81
2019-05-22T18:58:42.396Z,98943.02
2019-05-22T19:01:15.787Z,98948.58
2019-05-22T19:03:46.061Z,98958.87
2019-05-22T19:06:29.375Z,98951.47
2019-05-22T19:08:48.124Z,98955.37
2019-05-22T19:11:18.214Z,98955.70
2019-05-22T19:13:48.082Z,98960.01
2019-05-22T19:16:17.933Z,98959.60
2019-05-22T19:18:49.293Z,98958.67
2019-05-22T19:21:19.763Z,98962.69
2019-05-22T19:23:49.680Z,98969.80
2019-05-22T19:26:20.869Z,98971.37
2019-05-22T19:28:51.914Z,98973.52
2019-05-22T19:31:21.719Z,98977.09
2019-05-22T19:33:51.374Z,98979.69
2019-05-22T19:36:21.130Z,98980.91
2019-05-22T19:38:51.141Z,98976.54
2019-05-22T19:41:21.091Z,98974.83
2019-05-22T19:43:52.022Z,98979.02
2019-05-22T19:46:22.348Z,98980.91
2019-05-22T19:48:53.253Z,98982.08
2019-05-22T19:51:24.364Z,98980.55
2019-05-22T19:53:54.751Z,98986.28
2019-05-22T19:56:25.127Z,98984.38
2019-05-22T19:58:54.871Z,98984.20
2019-05-22T20:01:25.531Z,98992.20
2019-05-22T20:03:56.827Z,98993.17
2019-05-22T20:06:26.585Z,98993.47
2019-05-22T20:08:57.280Z,98994.27
2019-05-22T20:11:27.397Z,98997.68
2019-05-22T20:13:58.341Z,98995.90
2019-05-22T20:16:28.680Z,99001.52
2019-05-22T20:18:58.403Z,98997.65
2019-05-22T20:21:28.770Z,99000.18
2019-05-22T20:23:59.199Z,98996.16
2019-05-22T20:26:29.130Z,99004.20
2019-05-22T20:28:59.858Z,99001.33
2019-05-22T20:31:30.108Z,99000.03
2019-05-22T20:34:00.314Z,99002.03
2019-05-22T20:36:30.356Z,98999.54
2019-05-22T20:39:00.120Z,99006.01
2019-05-22T20:41:30.500Z,99005.89
2019-05-22T20:44:02.791Z,99004.70
2019-05-22T20:46:37.782Z,99013.06
2019-05-22T20:49:09.293Z,99003.88
2019-05-22T20:51:40.248Z,99006.81
2019-05-22T20:54:11.426Z,99004.53
2019-05-22T20:56:44.595Z,99011.88
2019-05-22T20:59:14.494Z,99008.17
2019-05-22T21:01:45.250Z,99010.97
2019-05-22T21:04:17.369Z,99021.02
2019-05-22T21:06:54.600Z,99020.91
2019-05-22T21:09:25.139Z,99022.83
2019-05-22T21:11:55.496Z,99017.61
2019-05-22T21:14:25.900Z,99020.97
2019-05-22T21:16:55.900Z,99017.30
2019-05-22T21:19:27.287Z,99022.89
2019-05-22T21:21:58.453Z,99022.66
2019-05-22T21:24:28.921Z,99028.83
2019-05-22T21:27:00.654Z,99030.00
2019-05-22T21:29:31.031Z,99026.09
2019-05-22T21:32:08.504Z,99030.63
2019-05-22T21:34:39.451Z,99033.13
2019-05-22T21:37:10.097Z,99030.34
2019-05-22T21:39:41.649Z,99030.38
2019-05-22T21:42:12.180Z,99030.28
2019-05-22T21:44:42.096Z,99032.30
2019-05-22T21:47:14.113Z,99033.64
2019-05-22T21:49:47.374Z,99030.52
2019-05-22T21:52:17.746Z,99036.93
2019-05-22T21:54:47.497Z,99041.39
2019-05-22T21:57:18.650Z,99042.80
2019-05-22T21:59:48.284Z,99043.38
2019-05-22T22:02:24.133Z,99039.98
2019-05-22T22:04:54.423Z,99044.66
2019-05-22T22:07:24.583Z,99040.98
2019-05-22T22:09:55.162Z,99047.19
2019-05-22T22:12:25.034Z,99049.08
2019-05-22T22:14:54.902Z,99049.66
2019-05-22T22:17:26.479Z,99055.48
2019-05-22T22:19:56.096Z,99060.43
2019-05-22T22:22:28.297Z,99058.85
2019-05-22T22:24:59.004Z,99057.69
2019-05-22T22:27:28.856Z,99059.61
2019-05-22T22:29:58.537Z,99061.39
2019-05-22T22:32:30.285Z,99061.70
2019-05-22T22:35:00.071Z,99062.87
2019-05-22T22:37:31.311Z,99061.94
2019-05-22T22:40:02.893Z,99074.39
2019-05-22T22:42:36.995Z,99070.24
2019-05-22T22:45:11.100Z,99077.69
2019-05-22T22:47:42.281Z,99082.18
2019-05-22T22:50:13.834Z,99082.56
2019-05-22T22:52:45.317Z,99081.47
2019-05-22T22:55:17.570Z,99086.71
2019-05-22T22:57:50.602Z,99088.46
2019-05-22T23:00:34.557Z,99088.88
2019-05-22T23:03:06.605Z,99089.91
2019-05-22T23:05:36.583Z,99081.30
2019-05-22T23:08:08.070Z,99083.97
2019-05-22T23:10:38.523Z,99086.37
2019-05-22T23:13:09.646Z,99090.30
2019-05-22T23:15:40.231Z,99092.19
2019-05-22T23:18:10.329Z,99082.44
2019-05-22T23:20:38.933Z,99094.33
2019-05-22T23:23:07.289Z,99092.93
2019-05-22T23:25:37.570Z,99095.16
2019-05-22T23:28:08.624Z,99098.77
2019-05-22T23:30:38.202Z,99099.95
2019-05-22T23:33:07.814Z,99094.53
2019-05-22T23:35:38.544Z,99091.50
2019-05-22T23:38:08.475Z,99094.31
2019-05-22T23:40:38.464Z,99096.45
2019-05-22T23:43:10.126Z,99093.10
2019-05-22T23:45:40.459Z,99096.34
2019-05-22T23:48:13.303Z,99101.22
2019-05-22T23:50:44.716Z,99097.43
2019-05-22T23:53:16.683Z,99093.64
2019-05-22T23:55:48.798Z,99100.20
2019-05-22T23:58:20.344Z,99101.25
